createdAt,value
2023-11-01T00:00:09.605Z,100028.09
2023-11-01T00:00:22.447Z,100032.63
2023-11-01T00:00:55.261Z,100028.91
2023-11-01T00:01:18.190Z,100024.56
2023-11-01T00:01:30.802Z,100031.59
2023-11-01T00:01:43.433Z,100023.56
2023-11-01T00:01:56.040Z,100025.25
2023-11-01T00:02:08.672Z,100021.72
2023-11-01T00:02:21.296Z,100020.88
2023-11-01T00:02:34.054Z,100018.19
2023-11-01T00:02:46.895Z,100018.19
2023-11-01T00:02:59.724Z,100007.59
2023-11-01T00:03:14.355Z,100008.47
2023-11-01T00:03:28.267Z,100019.19
2023-11-01T00:03:41.020Z,100022.72
2023-11-01T00:03:53.758Z,100018.19
2023-11-01T00:04:06.839Z,100019.19
2023-11-01T00:04:19.596Z,100010.28
2023-11-01T00:04:32.218Z,100017.50
2023-11-01T00:04:44.837Z,100015.81
2023-11-01T00:04:57.542Z,100020.31
2023-11-01T00:05:10.458Z,100019.34
2023-11-01T00:05:23.071Z,100024.72
2023-11-01T00:05:36.696Z,100021.19
2023-11-01T00:05:50.161Z,100021.19
2023-11-01T00:06:02.982Z,100023.88
2023-11-01T00:06:15.611Z,100024.72
2023-11-01T00:06:28.255Z,100020.19
2023-11-01T00:06:40.824Z,100019.50
2023-11-01T00:06:53.537Z,100023.88
2023-11-01T00:07:06.275Z,100019.34
2023-11-01T00:07:18.866Z,100027.41
2023-11-01T00:07:31.419Z,100023.88
2023-11-01T00:07:45.070Z,100025.53
2023-11-01T00:07:58.397Z,100024.72
2023-11-01T00:08:11.052Z,100027.41
2023-11-01T00:08:23.662Z,100025.69
2023-11-01T00:08:36.214Z,100025.53
2023-11-01T00:08:48.849Z,100029.25
2023-11-01T00:09:01.739Z,100028.38
2023-11-01T00:09:14.714Z,100033.75
2023-11-01T00:09:28.320Z,100034.59
2023-11-01T00:09:41.526Z,100031.94
2023-11-01T00:09:54.148Z,100029.25
2023-11-01T00:10:07.772Z,100029.25
2023-11-01T00:10:20.346Z,100024.72
2023-11-01T00:10:32.972Z,100025.53
2023-11-01T00:10:45.561Z,100029.25
2023-11-01T00:10:58.112Z,100031.94
2023-11-01T00:11:10.866Z,100029.25
2023-11-01T00:11:24.840Z,100023.88
2023-11-01T00:11:37.494Z,100024.72
2023-11-01T00:11:50.037Z,100028.38
2023-11-01T00:12:02.810Z,100028.22
2023-11-01T00:12:15.571Z,100029.25
2023-11-01T00:12:28.353Z,100024.84
2023-11-01T00:12:41.001Z,100031.94
2023-11-01T00:12:53.846Z,100028.38
2023-11-01T00:13:06.408Z,100023.88
2023-11-01T00:13:19.208Z,100023.88
2023-11-01T00:13:32.973Z,100034.59
2023-11-01T00:13:45.573Z,100030.06
2023-11-01T00:13:58.109Z,100031.06
2023-11-01T00:14:10.665Z,100032.75
2023-11-01T00:14:23.293Z,100025.69
2023-11-01T00:14:35.932Z,100030.06
2023-11-01T00:14:48.567Z,100027.53
2023-11-01T00:15:01.091Z,100030.06
2023-11-01T00:15:16.060Z,100030.06
2023-11-01T00:15:29.226Z,100029.25
2023-11-01T00:15:41.981Z,100033.75
2023-11-01T00:15:54.715Z,100034.59
2023-11-01T00:16:09.499Z,100027.53
2023-11-01T00:16:22.137Z,100037.28
2023-11-01T00:16:35.039Z,100033.75
2023-11-01T00:16:47.771Z,100030.22
2023-11-01T00:17:01.332Z,100032.91
2023-11-01T00:17:14.039Z,100034.59
2023-11-01T00:17:26.721Z,100032.91
2023-11-01T00:17:39.406Z,100031.06
2023-11-01T00:17:52.176Z,100036.44
2023-11-01T00:18:05.145Z,100039.97
2023-11-01T00:18:17.853Z,100030.22
2023-11-01T00:18:30.490Z,100033.91
2023-11-01T00:18:43.079Z,100036.59
2023-11-01T00:18:56.983Z,100035.75
2023-11-01T00:19:09.738Z,100036.59
2023-11-01T00:19:22.359Z,100033.91
2023-11-01T00:19:34.941Z,100035.75
2023-11-01T00:19:47.567Z,100037.59
2023-11-01T00:20:00.722Z,100038.44
2023-11-01T00:20:13.333Z,100039.44
2023-11-01T00:20:26.929Z,100034.91
2023-11-01T00:20:39.896Z,100033.19
2023-11-01T00:20:52.526Z,100033.19
2023-11-01T00:21:05.688Z,100040.25
2023-11-01T00:21:18.271Z,100033.19
2023-11-01T00:21:30.851Z,100033.19
2023-11-01T00:21:43.442Z,100036.84
2023-11-01T00:21:56.051Z,100036.84
2023-11-01T00:22:10.706Z,100040.41
2023-11-01T00:22:23.376Z,100031.50
2023-11-01T00:22:35.966Z,100035.03
2023-11-01T00:22:48.591Z,100026.13
2023-11-01T00:23:01.178Z,100035.19
2023-11-01T00:23:13.808Z,100036.03
2023-11-01T00:23:26.449Z,100036.84
2023-11-01T00:23:40.238Z,100035.19
2023-11-01T00:23:53.251Z,100041.38
2023-11-01T00:24:06.398Z,100036.03
2023-11-01T00:24:19.219Z,100035.19
2023-11-01T00:24:31.759Z,100037.88
2023-11-01T00:24:44.805Z,100031.50
2023-11-01T00:24:57.541Z,100040.56
2023-11-01T00:25:10.177Z,100038.84
2023-11-01T00:25:22.791Z,100035.34
2023-11-01T00:25:36.889Z,100037.19
2023-11-01T00:25:49.765Z,100039.88
2023-11-01T00:26:02.684Z,100044.41
2023-11-01T00:26:15.317Z,100044.41
2023-11-01T00:26:28.036Z,100045.22
2023-11-01T00:26:40.778Z,100050.75
2023-11-01T00:26:53.420Z,100041.03
2023-11-01T00:27:06.355Z,100050.75
2023-11-01T00:27:18.909Z,100045.69
2023-11-01T00:27:33.260Z,100046.53
2023-11-01T00:27:47.026Z,100041.16
2023-11-01T00:27:59.677Z,100044.88
2023-11-01T00:28:12.536Z,100049.38
2023-11-01T00:28:25.133Z,100048.53
2023-11-01T00:28:37.767Z,100050.38
2023-11-01T00:28:50.312Z,100048.53
2023-11-01T00:29:02.936Z,100049.53
2023-11-01T00:29:16.956Z,100047.84
2023-11-01T00:29:29.582Z,100046.84
2023-11-01T00:29:42.290Z,100044.31
2023-11-01T00:29:54.870Z,100052.22
2023-11-01T00:30:08.774Z,100045.16
2023-11-01T00:30:22.721Z,100049.69
2023-11-01T00:30:35.349Z,100049.69
2023-11-01T00:30:49.087Z,100054.22
2023-11-01T00:31:02.024Z,100047.13
2023-11-01T00:31:14.661Z,100051.66
2023-11-01T00:31:27.261Z,100057.88
2023-11-01T00:31:39.835Z,100056.19
2023-11-01T00:31:53.239Z,100058.06
2023-11-01T00:32:06.297Z,100054.50
2023-11-01T00:32:19.089Z,100050.84
2023-11-01T00:32:31.989Z,100057.88
2023-11-01T00:32:45.644Z,100054.34
2023-11-01T00:32:58.406Z,100050.84
2023-11-01T00:33:11.128Z,100054.50
2023-11-01T00:33:24.085Z,100054.50
2023-11-01T00:33:36.815Z,100055.50
2023-11-01T00:33:49.447Z,100054.66
2023-11-01T00:34:02.123Z,100053.81
2023-11-01T00:34:14.783Z,100057.50
2023-11-01T00:34:27.664Z,100061.16
2023-11-01T00:34:41.203Z,100055.09
2023-11-01T00:34:55.083Z,100054.13
2023-11-01T00:35:08.602Z,100061.16
2023-11-01T00:35:21.200Z,100062.16
2023-11-01T00:35:33.867Z,100058.66
2023-11-01T00:35:46.801Z,100059.34
2023-11-01T00:35:59.431Z,100055.09
2023-11-01T00:36:12.058Z,100057.78
2023-11-01T00:36:24.639Z,100060.47
2023-11-01T00:36:38.372Z,100063.16
2023-11-01T00:36:51.088Z,100065.53
2023-11-01T00:37:03.976Z,100064.00
2023-11-01T00:37:16.802Z,100067.53
2023-11-01T00:37:29.440Z,100065.69
2023-11-01T00:37:42.012Z,100062.16
2023-11-01T00:37:54.711Z,100063.84
2023-11-01T00:38:07.641Z,100059.50
2023-11-01T00:38:20.537Z,100066.53
2023-11-01T00:38:36.868Z,100059.50
2023-11-01T00:38:49.499Z,100065.53
2023-11-01T00:39:02.227Z,100070.91
2023-11-01T00:39:14.786Z,100058.34
2023-11-01T00:39:27.580Z,100067.22
2023-11-01T00:39:40.980Z,100061.84
2023-11-01T00:39:53.850Z,100061.00
2023-11-01T00:40:08.640Z,100067.22
2023-11-01T00:40:22.199Z,100067.22
2023-11-01T00:40:34.943Z,100064.53
2023-11-01T00:40:47.759Z,100062.72
2023-11-01T00:41:03.717Z,100066.25
2023-11-01T00:41:16.346Z,100065.22
2023-11-01T00:41:29.020Z,100066.94
2023-11-01T00:41:41.634Z,100065.22
2023-11-01T00:41:54.339Z,100066.09
2023-11-01T00:42:06.928Z,100068.78
2023-11-01T00:42:20.531Z,100068.59
2023-11-01T00:42:33.179Z,100068.59
2023-11-01T00:42:45.996Z,100066.75
2023-11-01T00:42:58.657Z,100070.31
2023-11-01T00:43:11.204Z,100071.97
2023-11-01T00:43:23.839Z,100070.13
2023-11-01T00:43:37.958Z,100072.81
2023-11-01T00:43:50.570Z,100067.44
2023-11-01T00:44:03.406Z,100062.94
2023-11-01T00:44:17.013Z,100065.63
2023-11-01T00:44:29.897Z,100068.31
2023-11-01T00:44:42.622Z,100063.78
2023-11-01T00:44:55.225Z,100059.41
2023-11-01T00:45:08.664Z,100068.31
2023-11-01T00:45:22.965Z,100061.09
2023-11-01T00:45:35.519Z,100067.31
2023-11-01T00:45:48.239Z,100067.31
2023-11-01T00:46:00.912Z,100064.63
2023-11-01T00:46:15.064Z,100064.63
2023-11-01T00:46:28.262Z,100066.31
2023-11-01T00:46:41.151Z,100071.69
2023-11-01T00:46:53.812Z,100069.00
2023-11-01T00:47:07.354Z,100066.31
2023-11-01T00:47:19.945Z,100063.63
2023-11-01T00:47:32.929Z,100060.97
2023-11-01T00:47:45.697Z,100063.63
2023-11-01T00:47:58.409Z,100066.31
2023-11-01T00:48:11.082Z,100066.31
2023-11-01T00:48:24.833Z,100064.47
2023-11-01T00:48:37.472Z,100066.31
2023-11-01T00:48:50.030Z,100060.09
2023-11-01T00:49:02.601Z,100072.53
2023-11-01T00:49:15.387Z,100063.63
2023-11-01T00:49:28.023Z,100065.31
2023-11-01T00:49:40.593Z,100066.31
2023-11-01T00:49:53.157Z,100057.41
2023-11-01T00:50:07.126Z,100053.88
2023-11-01T00:50:20.767Z,100066.31
2023-11-01T00:50:33.388Z,100066.31
2023-11-01T00:50:46.408Z,100064.63
2023-11-01T00:50:59.056Z,100063.63
2023-11-01T00:51:11.786Z,100066.31
2023-11-01T00:51:24.670Z,100070.81
2023-11-01T00:51:37.327Z,100059.25
2023-11-01T00:51:49.935Z,100061.09
2023-11-01T00:52:02.628Z,100064.63
2023-11-01T00:52:16.837Z,100061.94
2023-11-01T00:52:29.392Z,100066.31
2023-11-01T00:52:42.036Z,100072.53
2023-11-01T00:52:54.622Z,100063.63
2023-11-01T00:53:07.358Z,100061.94
2023-11-01T00:53:19.986Z,100067.31
2023-11-01T00:53:32.663Z,100065.47
2023-11-01T00:53:45.265Z,100064.63
2023-11-01T00:53:57.899Z,100064.63
2023-11-01T00:54:10.471Z,100068.13
2023-11-01T00:54:24.114Z,100064.63
2023-11-01T00:54:36.664Z,100071.69
2023-11-01T00:54:49.339Z,100068.13
2023-11-01T00:55:01.962Z,100072.53
2023-11-01T00:55:15.072Z,100072.53
2023-11-01T00:55:27.651Z,100069.00
2023-11-01T00:55:40.197Z,100061.94
2023-11-01T00:55:52.769Z,100069.00
2023-11-01T00:56:07.482Z,100069.00
2023-11-01T00:56:20.470Z,100069.00
2023-11-01T00:56:33.169Z,100065.47
2023-11-01T00:56:45.827Z,100068.13
2023-11-01T00:56:58.429Z,100066.31
2023-11-01T00:57:11.061Z,100065.47
2023-11-01T00:57:23.707Z,100065.47
2023-11-01T00:57:36.316Z,100065.47
2023-11-01T00:57:49.934Z,100065.47
2023-11-01T00:58:02.637Z,100071.69
2023-11-01T00:58:15.255Z,100061.94
2023-11-01T00:58:27.796Z,100070.00
2023-11-01T00:58:40.399Z,100068.31
2023-11-01T00:58:53.286Z,100070.00
2023-11-01T00:59:05.977Z,100074.53
2023-11-01T00:59:18.547Z,100067.31
2023-11-01T00:59:31.266Z,100069.16
2023-11-01T00:59:44.872Z,100074.53
2023-11-01T00:59:57.441Z,100074.53
2023-11-01T01:00:11.300Z,100071.00
2023-11-01T01:00:25.242Z,100069.28
2023-11-01T01:00:37.770Z,100069.28
2023-11-01T01:00:50.400Z,100072.81
2023-11-01T01:01:04.468Z,100071.97
2023-11-01T01:01:19.113Z,100071.13
2023-11-01T01:01:33.020Z,100073.00
2023-11-01T01:01:46.653Z,100073.97
2023-11-01T01:01:59.201Z,100073.97
2023-11-01T01:02:11.810Z,100074.81
2023-11-01T01:02:24.488Z,100076.66
2023-11-01T01:02:37.341Z,100073.97
2023-11-01T01:02:50.488Z,100072.28
2023-11-01T01:03:04.669Z,100074.81
2023-11-01T01:03:17.766Z,100083.72
2023-11-01T01:03:31.632Z,100078.34
2023-11-01T01:03:44.411Z,100077.47
2023-11-01T01:03:57.203Z,100071.13
2023-11-01T01:04:09.916Z,100072.13
2023-11-01T01:04:22.668Z,100082.72
2023-11-01T01:04:35.323Z,100078.34
2023-11-01T01:04:48.247Z,100082.84
2023-11-01T01:05:00.814Z,100080.34
2023-11-01T01:05:13.441Z,100083.88
2023-11-01T01:05:27.100Z,100084.69
2023-11-01T01:05:39.887Z,100083.03
2023-11-01T01:05:52.560Z,100077.66
2023-11-01T01:06:05.834Z,100076.81
2023-11-01T01:06:18.416Z,100080.34
2023-11-01T01:06:31.132Z,100084.88
2023-11-01T01:06:43.985Z,100084.00
2023-11-01T01:06:57.340Z,100082.19
2023-11-01T01:07:10.031Z,100082.19
2023-11-01T01:07:23.703Z,100084.00
2023-11-01T01:07:36.471Z,100084.00
2023-11-01T01:07:49.109Z,100080.50
2023-11-01T01:08:02.113Z,100080.34
2023-11-01T01:08:14.846Z,100083.16
2023-11-01T01:08:30.230Z,100080.50
2023-11-01T01:08:43.149Z,100086.69
2023-11-01T01:08:55.801Z,100087.69
2023-11-01T01:09:08.429Z,100083.16
2023-11-01T01:09:22.028Z,100082.47
2023-11-01T01:09:34.570Z,100080.81
2023-11-01T01:09:47.212Z,100078.97
2023-11-01T01:10:00.050Z,100082.47
2023-11-01T01:10:12.771Z,100084.31
2023-11-01T01:10:25.684Z,100087.00
2023-11-01T01:10:38.269Z,100078.97
2023-11-01T01:10:50.891Z,100087.00
2023-11-01T01:11:04.223Z,100085.16
2023-11-01T01:11:18.791Z,100086.00
2023-11-01T01:11:32.499Z,100088.69
2023-11-01T01:11:45.173Z,100086.88
2023-11-01T01:11:57.783Z,100083.31
2023-11-01T01:12:10.372Z,100088.69
2023-11-01T01:12:22.988Z,100090.53
2023-11-01T01:12:35.664Z,100084.31
2023-11-01T01:12:48.273Z,100082.47
2023-11-01T01:13:00.930Z,100094.91
2023-11-01T01:13:13.523Z,100094.03
2023-11-01T01:13:27.056Z,100090.38
2023-11-01T01:13:39.751Z,100094.03
2023-11-01T01:13:52.398Z,100091.34
2023-11-01T01:14:05.219Z,100089.69
2023-11-01T01:14:18.860Z,100091.34
2023-11-01T01:14:31.601Z,100093.19
2023-11-01T01:14:44.270Z,100089.53
2023-11-01T01:14:58.590Z,100086.88
2023-11-01T01:15:12.292Z,100090.38
2023-11-01T01:15:26.934Z,100088.53
2023-11-01T01:15:39.778Z,100095.75
2023-11-01T01:15:52.436Z,100091.22
2023-11-01T01:16:08.781Z,100092.06
2023-11-01T01:16:21.469Z,100092.91
2023-11-01T01:16:35.949Z,100098.28
2023-11-01T01:16:48.659Z,100101.94
2023-11-01T01:17:01.394Z,100094.75
2023-11-01T01:17:15.500Z,100093.06
2023-11-01T01:17:28.171Z,100091.22
2023-11-01T01:17:40.920Z,100088.53
2023-11-01T01:17:53.611Z,100094.75
2023-11-01T01:18:07.361Z,100096.59
2023-11-01T01:18:21.742Z,100090.25
2023-11-01T01:18:34.542Z,100093.75
2023-11-01T01:18:47.262Z,100092.06
2023-11-01T01:18:59.976Z,100094.75
2023-11-01T01:19:13.608Z,100088.53
2023-11-01T01:19:26.208Z,100092.06
2023-11-01T01:19:38.806Z,100090.38
2023-11-01T01:19:52.212Z,100096.72
2023-11-01T01:20:05.548Z,100094.03
2023-11-01T01:20:18.207Z,100094.91
2023-11-01T01:20:31.386Z,100097.59
2023-11-01T01:20:44.038Z,100096.72
2023-11-01T01:20:57.686Z,100093.06
2023-11-01T01:21:10.277Z,100102.97
2023-11-01T01:21:22.900Z,100096.72
2023-11-01T01:21:35.499Z,100095.88
2023-11-01T01:21:48.074Z,100096.72
2023-11-01T01:22:01.087Z,100100.28
2023-11-01T01:22:13.856Z,100099.41
2023-11-01T01:22:26.566Z,100095.88
2023-11-01T01:22:39.151Z,100097.59
2023-11-01T01:22:51.736Z,100100.28
2023-11-01T01:23:05.457Z,100095.75
2023-11-01T01:23:18.159Z,100098.44
2023-11-01T01:23:30.730Z,100098.44
2023-11-01T01:23:43.445Z,100095.75
2023-11-01T01:23:56.174Z,100096.72
2023-11-01T01:24:09.235Z,100096.72
2023-11-01T01:24:21.814Z,100103.94
2023-11-01T01:24:34.400Z,100096.72
2023-11-01T01:24:47.052Z,100099.41
2023-11-01T01:24:59.635Z,100097.75
2023-11-01T01:25:13.229Z,100100.41
2023-11-01T01:25:25.868Z,100100.41
2023-11-01T01:25:38.471Z,100096.91
2023-11-01T01:25:51.276Z,100105.78
2023-11-01T01:26:04.149Z,100101.41
2023-11-01T01:26:16.860Z,100095.06
2023-11-01T01:26:29.507Z,100097.03
2023-11-01T01:26:42.170Z,100104.06
2023-11-01T01:26:54.872Z,100099.72
2023-11-01T01:27:07.572Z,100095.19
2023-11-01T01:27:20.148Z,100098.03
2023-11-01T01:27:33.765Z,100094.34
2023-11-01T01:27:46.575Z,100094.34
2023-11-01T01:27:59.153Z,100098.72
2023-11-01T01:28:11.774Z,100098.88
2023-11-01T01:28:24.398Z,100099.72
2023-11-01T01:28:37.023Z,100097.03
2023-11-01T01:28:49.541Z,100105.09
2023-11-01T01:29:02.183Z,100099.72
2023-11-01T01:29:14.906Z,100094.34
2023-11-01T01:29:28.503Z,100104.94
2023-11-01T01:29:41.373Z,100101.41
2023-11-01T01:29:53.997Z,100104.06
2023-11-01T01:30:07.906Z,100094.34
2023-11-01T01:30:21.085Z,100103.38
2023-11-01T01:30:35.051Z,100100.69
2023-11-01T01:30:47.698Z,100094.50
2023-11-01T01:31:00.463Z,100104.25
2023-11-01T01:31:13.603Z,100102.56
2023-11-01T01:31:27.183Z,100104.25
2023-11-01T01:31:39.836Z,100100.69
2023-11-01T01:31:52.541Z,100105.22
2023-11-01T01:32:05.398Z,100107.06
2023-11-01T01:32:18.129Z,100105.41
2023-11-01T01:32:32.777Z,100112.59
2023-11-01T01:32:45.585Z,100103.69
2023-11-01T01:32:59.365Z,100103.69
2023-11-01T01:33:12.030Z,100101.03
2023-11-01T01:33:24.704Z,100099.34
2023-11-01T01:33:37.721Z,100111.75
2023-11-01T01:33:50.295Z,100104.53
2023-11-01T01:34:02.875Z,100103.69
2023-11-01T01:34:15.476Z,100095.66
2023-11-01T01:34:28.038Z,100106.38
2023-11-01T01:34:40.777Z,100094.97
2023-11-01T01:34:53.431Z,100104.72
2023-11-01T01:35:06.724Z,100099.50
2023-11-01T01:35:20.636Z,100097.78
2023-11-01T01:35:33.217Z,100105.00
2023-11-01T01:35:46.059Z,100102.44
2023-11-01T01:35:59.156Z,100100.63
2023-11-01T01:36:12.244Z,100105.00
2023-11-01T01:36:24.815Z,100108.69
2023-11-01T01:36:37.438Z,100109.66
2023-11-01T01:36:50.028Z,100104.31
2023-11-01T01:37:04.163Z,100108.69
2023-11-01T01:37:16.818Z,100108.69
2023-11-01T01:37:30.193Z,100115.03
2023-11-01T01:37:42.832Z,100105.13
2023-11-01T01:37:55.379Z,100109.66
2023-11-01T01:38:08.064Z,100109.66
2023-11-01T01:38:20.708Z,100113.34
2023-11-01T01:38:33.360Z,100105.31
2023-11-01T01:38:46.170Z,100101.78
2023-11-01T01:38:59.726Z,100100.91
2023-11-01T01:39:12.336Z,100107.16
2023-11-01T01:39:25.051Z,100101.63
2023-11-01T01:39:37.744Z,100110.66
2023-11-01T01:39:50.370Z,100103.59
2023-11-01T01:40:04.531Z,100106.28
2023-11-01T01:40:17.258Z,100111.66
2023-11-01T01:40:29.899Z,100102.63
2023-11-01T01:40:42.508Z,100102.63
2023-11-01T01:40:55.210Z,100103.47
2023-11-01T01:41:08.766Z,100106.97
2023-11-01T01:41:21.752Z,100107.69
2023-11-01T01:41:34.309Z,100111.38
2023-11-01T01:41:47.070Z,100113.19
2023-11-01T01:41:59.682Z,100106.00
2023-11-01T01:42:12.272Z,100100.63
2023-11-01T01:42:25.253Z,100106.00
2023-11-01T01:42:38.045Z,100108.50
2023-11-01T01:42:50.659Z,100105.00
2023-11-01T01:43:22.930Z,100109.22
2023-11-01T01:43:35.651Z,100100.31
2023-11-01T01:43:48.684Z,100099.50
2023-11-01T01:44:01.398Z,100110.22
2023-11-01T01:44:14.069Z,100107.38
2023-11-01T01:44:26.753Z,100109.22
2023-11-01T01:44:39.362Z,100109.06
2023-11-01T01:44:54.264Z,100102.03
2023-11-01T01:45:08.287Z,100102.03
2023-11-01T01:45:21.220Z,100097.50
2023-11-01T01:45:35.183Z,100103.69
2023-11-01T01:46:04.687Z,100101.84
2023-11-01T01:46:19.234Z,100108.75
2023-11-01T01:46:31.958Z,100102.41
2023-11-01T01:46:44.767Z,100104.25
2023-11-01T01:46:58.809Z,100102.97
2023-11-01T01:47:11.881Z,100102.97
2023-11-01T01:47:24.627Z,100094.03
2023-11-01T01:47:37.779Z,100103.09
2023-11-01T01:47:50.469Z,100103.94
2023-11-01T01:48:03.553Z,100096.03
2023-11-01T01:48:16.484Z,100098.72
2023-11-01T01:48:29.838Z,100095.19
2023-11-01T01:48:44.456Z,100097.03
2023-11-01T01:48:58.914Z,100107.63
2023-11-01T01:49:13.249Z,100104.25
2023-11-01T01:49:33.018Z,100092.50
2023-11-01T01:49:51.092Z,100097.75
2023-11-01T01:50:04.166Z,100098.56
2023-11-01T01:50:16.950Z,100096.72
2023-11-01T01:50:29.590Z,100097.75
2023-11-01T01:50:42.324Z,100097.59
2023-11-01T01:50:55.114Z,100094.03
2023-11-01T01:51:09.636Z,100104.78
2023-11-01T01:51:22.742Z,100095.06
2023-11-01T01:51:35.844Z,100095.06
2023-11-01T01:51:49.699Z,100104.78
2023-11-01T01:52:02.768Z,100097.59
2023-11-01T01:52:16.285Z,100095.75
2023-11-01T01:52:29.085Z,100096.72
2023-11-01T01:52:42.127Z,100096.59
2023-11-01T01:52:54.871Z,100092.22
2023-11-01T01:53:07.840Z,100094.03
2023-11-01T01:53:21.584Z,100098.44
2023-11-01T01:53:36.557Z,100103.78
2023-11-01T01:53:50.005Z,100100.28
2023-11-01T01:54:03.367Z,100101.09
2023-11-01T01:54:16.206Z,100100.28
2023-11-01T01:54:30.596Z,100104.63
2023-11-01T01:54:43.648Z,100102.78
2023-11-01T01:54:57.538Z,100102.78
2023-11-01T01:55:11.925Z,100104.50
2023-11-01T01:55:24.778Z,100115.22
2023-11-01T01:55:37.484Z,100108.16
2023-11-01T01:55:50.597Z,100108.16
2023-11-01T01:56:04.759Z,100103.66
2023-11-01T01:56:19.153Z,100103.66
2023-11-01T01:56:31.873Z,100113.50
2023-11-01T01:56:44.899Z,100108.16
2023-11-01T01:56:59.084Z,100098.28
2023-11-01T01:57:11.776Z,100106.47
2023-11-01T01:57:25.932Z,100109.84
2023-11-01T01:57:38.533Z,100100.78
2023-11-01T01:57:51.240Z,100108.84
2023-11-01T01:58:03.995Z,100109.69
2023-11-01T01:58:17.045Z,100107.88
2023-11-01T01:58:31.727Z,100105.00
2023-11-01T01:58:45.941Z,100112.22
2023-11-01T01:59:00.062Z,100108.69
2023-11-01T01:59:12.879Z,100107.53
2023-11-01T01:59:25.654Z,100105.88
2023-11-01T01:59:38.679Z,100106.72
2023-11-01T01:59:52.650Z,100108.56
2023-11-01T02:00:08.516Z,100111.25
2023-11-01T02:00:21.818Z,100110.22
2023-11-01T02:00:36.957Z,100106.72
2023-11-01T02:00:50.294Z,100112.91
2023-11-01T02:01:03.114Z,100116.59
2023-11-01T02:01:16.083Z,100119.28
2023-11-01T02:01:38.665Z,100108.56
2023-11-01T02:01:57.428Z,100116.59
2023-11-01T02:02:11.095Z,100112.22
2023-11-01T02:02:25.646Z,100111.25
2023-11-01T02:02:40.189Z,100119.28
2023-11-01T02:02:54.473Z,100115.75
2023-11-01T02:03:07.268Z,100111.25
2023-11-01T02:03:19.982Z,100111.25
2023-11-01T02:03:33.017Z,100108.56
2023-11-01T02:03:45.812Z,100116.59
2023-11-01T02:03:59.114Z,100116.59
2023-11-01T02:04:11.996Z,100114.06
2023-11-01T02:04:26.486Z,100121.28
2023-11-01T02:04:40.173Z,100115.91
2023-11-01T02:04:53.833Z,100113.22
2023-11-01T02:05:07.797Z,100114.22
2023-11-01T02:05:21.567Z,100117.72
2023-11-01T02:05:34.407Z,100113.38
2023-11-01T02:05:47.183Z,100111.53
2023-11-01T02:05:59.970Z,100116.06
2023-11-01T02:06:12.599Z,100120.59
2023-11-01T02:06:25.429Z,100112.69
2023-11-01T02:06:38.963Z,100119.75
2023-11-01T02:06:51.498Z,100113.50
2023-11-01T02:07:04.096Z,100123.25
2023-11-01T02:07:16.892Z,100117.06
2023-11-01T02:07:29.468Z,100114.38
2023-11-01T02:07:41.999Z,100125.94
2023-11-01T02:07:54.983Z,100121.41
2023-11-01T02:08:07.599Z,100118.03
2023-11-01T02:08:21.934Z,100112.69
2023-11-01T02:08:34.955Z,100119.56
2023-11-01T02:08:47.762Z,100114.38
2023-11-01T02:09:00.421Z,100126.94
2023-11-01T02:09:16.974Z,100116.19
2023-11-01T02:09:30.267Z,100119.88
2023-11-01T02:09:42.963Z,100112.69
2023-11-01T02:09:56.148Z,100124.25
2023-11-01T02:10:15.440Z,100120.59
2023-11-01T02:10:29.297Z,100124.41
2023-11-01T02:10:42.043Z,100128.91
2023-11-01T02:10:54.652Z,100125.41
2023-11-01T02:11:07.196Z,100128.91
2023-11-01T02:11:19.843Z,100126.22
2023-11-01T02:11:32.712Z,100128.91
2023-11-01T02:11:46.214Z,100129.94
2023-11-01T02:12:00.608Z,100127.25
2023-11-01T02:12:14.693Z,100124.56
2023-11-01T02:12:27.572Z,100133.59
2023-11-01T02:12:40.134Z,100131.91
2023-11-01T02:12:52.958Z,100126.53
2023-11-01T02:13:15.634Z,100135.56
2023-11-01T02:13:28.402Z,100134.59
2023-11-01T02:13:40.982Z,100125.72
2023-11-01T02:13:53.543Z,100136.44
2023-11-01T02:14:07.109Z,100129.22
2023-11-01T02:14:19.857Z,100134.72
2023-11-01T02:14:32.544Z,100132.88
2023-11-01T02:14:45.599Z,100134.72
2023-11-01T02:14:58.214Z,100139.25
2023-11-01T02:15:10.966Z,100136.59
2023-11-01T02:15:24.715Z,100139.25
2023-11-01T02:15:40.030Z,100136.59
2023-11-01T02:15:52.625Z,100133.91
2023-11-01T02:16:08.436Z,100135.75
2023-11-01T02:16:21.295Z,100147.31
2023-11-01T02:16:33.863Z,100128.53
2023-11-01T02:16:46.499Z,100135.56
2023-11-01T02:16:59.298Z,100142.63
2023-11-01T02:17:12.931Z,100141.63
2023-11-01T02:17:25.580Z,100137.28
2023-11-01T02:17:38.309Z,100139.97
2023-11-01T02:17:51.058Z,100133.75
2023-11-01T02:18:05.059Z,100139.13
2023-11-01T02:18:17.673Z,100134.59
2023-11-01T02:18:30.267Z,100141.81
2023-11-01T02:18:43.194Z,100138.94
2023-11-01T02:18:55.888Z,100147.16
2023-11-01T02:19:10.150Z,100145.31
2023-11-01T02:19:23.450Z,100140.94
2023-11-01T02:19:36.017Z,100139.25
2023-11-01T02:19:48.658Z,100148.97
2023-11-01T02:20:01.672Z,100144.63
2023-11-01T02:20:15.350Z,100140.94
2023-11-01T02:20:29.196Z,100146.47
2023-11-01T02:20:43.366Z,100144.63
2023-11-01T02:20:56.790Z,100145.63
2023-11-01T02:21:10.395Z,100136.72
2023-11-01T02:21:23.090Z,100149.28
2023-11-01T02:21:35.735Z,100150.81
2023-11-01T02:21:48.260Z,100144.63
2023-11-01T02:22:00.865Z,100147.31
2023-11-01T02:22:13.447Z,100150.81
2023-11-01T02:22:25.993Z,100145.63
2023-11-01T02:22:40.173Z,100148.31
2023-11-01T02:22:56.979Z,100149.16
2023-11-01T02:23:11.730Z,100149.28
2023-11-01T02:23:32.884Z,100149.28
2023-11-01T02:23:45.587Z,100151.97
2023-11-01T02:23:58.737Z,100153.69
2023-11-01T02:24:11.371Z,100145.78
2023-11-01T02:24:24.049Z,100152.81
2023-11-01T02:24:36.966Z,100149.44
2023-11-01T02:24:50.565Z,100154.81
2023-11-01T02:25:03.742Z,100160.34
2023-11-01T02:25:17.143Z,100153.13
2023-11-01T02:25:29.844Z,100149.59
2023-11-01T02:25:43.552Z,100157.66
2023-11-01T02:25:56.963Z,100146.94
2023-11-01T02:26:10.147Z,100154.09
2023-11-01T02:26:22.891Z,100159.63
2023-11-01T02:26:35.528Z,100154.28
2023-11-01T02:26:48.138Z,100149.88
2023-11-01T02:27:03.960Z,100149.06
2023-11-01T02:27:16.600Z,100155.44
2023-11-01T02:27:30.084Z,100158.25
2023-11-01T02:27:42.834Z,100159.09
2023-11-01T02:27:56.261Z,100158.25
2023-11-01T02:28:09.957Z,100155.72
2023-11-01T02:28:22.517Z,100152.19
2023-11-01T02:28:35.122Z,100155.72
2023-11-01T02:28:47.751Z,100147.81
2023-11-01T02:29:01.297Z,100156.84
2023-11-01T02:29:13.939Z,100153.16
2023-11-01T02:29:26.516Z,100150.47
2023-11-01T02:29:39.257Z,100150.78
2023-11-01T02:29:51.875Z,100148.13
2023-11-01T02:30:06.345Z,100157.16
2023-11-01T02:30:18.973Z,100157.16
2023-11-01T02:30:31.749Z,100156.28
2023-11-01T02:30:45.365Z,100157.16
2023-11-01T02:30:58.112Z,100156.28